createdAt,value
2018-11-25T00:00:49.580Z,40.90
2018-11-25T00:03:22.010Z,40.03
2018-11-25T00:05:56.301Z,43.90
2018-11-25T00:08:29.259Z,48.20
2018-11-25T00:11:01.806Z,47.38
2018-11-25T00:13:35.091Z,45.30
2018-11-25T00:16:07.707Z,45.73
2018-11-25T00:18:40.625Z,48.83
2018-11-25T00:21:15.313Z,51.33
2018-11-25T00:23:54.212Z,55.67
2018-11-25T00:26:28.388Z,58.93
2018-11-25T00:29:01.523Z,54.17
2018-11-25T00:31:41.344Z,53.93
2018-11-25T00:34:14.300Z,49.67
2018-11-25T00:36:46.933Z,49.80
2018-11-25T00:39:19.338Z,51.47
2018-11-25T00:41:52.463Z,55.87
2018-11-25T00:44:24.828Z,56.47
2018-11-25T00:46:57.713Z,55.27
2018-11-25T00:49:31.272Z,52.97
2018-11-25T00:52:03.590Z,52.20
2018-11-25T00:54:36.564Z,54.90
2018-11-25T00:57:08.958Z,48.83
2018-11-25T00:59:41.450Z,49.70
2018-11-25T01:02:15.086Z,46.03
2018-11-25T01:04:47.708Z,49.30
2018-11-25T01:07:20.066Z,50.20
2018-11-25T01:09:52.705Z,56.65
2018-11-25T01:12:25.386Z,52.50
2018-11-25T01:14:57.982Z,52.87
2018-11-25T01:17:30.345Z,52.00
2018-11-25T01:20:02.789Z,62.45
2018-11-25T01:22:35.224Z,63.63
2018-11-25T01:25:08.278Z,61.83
2018-11-25T01:27:40.744Z,59.77
2018-11-25T01:30:15.774Z,62.83
2018-11-25T01:32:53.804Z,75.15
2018-11-25T01:35:26.342Z,62.30
2018-11-25T01:37:58.770Z,57.07
2018-11-25T01:40:31.314Z,57.87
2018-11-25T01:43:04.316Z,58.73
2018-11-25T01:45:36.827Z,62.40
2018-11-25T01:48:09.270Z,63.00
2018-11-25T01:50:41.664Z,62.60
2018-11-25T01:53:14.166Z,57.93
2018-11-25T01:55:46.742Z,66.07
2018-11-25T01:58:19.382Z,57.43
2018-11-25T02:00:52.365Z,59.97
2018-11-25T02:03:25.052Z,55.93
2018-11-25T02:05:57.282Z,55.05
2018-11-25T02:08:29.833Z,50.73
2018-11-25T02:11:04.331Z,52.30
2018-11-25T02:13:36.536Z,56.13
2018-11-25T02:16:10.061Z,67.43
2018-11-25T02:18:42.480Z,59.97
2018-11-25T02:21:15.302Z,54.37
2018-11-25T02:23:48.181Z,55.63
2018-11-25T02:26:20.927Z,54.20
2018-11-25T02:28:53.330Z,55.23
2018-11-25T02:31:25.776Z,52.43
2018-11-25T02:33:58.219Z,53.77
2018-11-25T02:36:30.617Z,53.73
2018-11-25T02:39:03.558Z,49.70
2018-11-25T02:41:36.105Z,48.07
2018-11-25T02:44:08.775Z,48.60
2018-11-25T02:46:41.239Z,45.37
2018-11-25T02:49:13.644Z,43.47
2018-11-25T02:51:46.532Z,47.30
2018-11-25T02:54:19.068Z,44.63
2018-11-25T02:56:51.667Z,47.70
2018-11-25T02:59:24.500Z,50.17
2018-11-25T03:01:57.500Z,52.83
2018-11-25T03:04:29.836Z,49.47
2018-11-25T03:07:02.405Z,44.43
2018-11-25T03:09:34.845Z,20.23
2018-11-25T03:12:07.265Z,13.93
2018-11-25T03:14:39.844Z,11.53
2018-11-25T03:17:12.936Z,11.33
2018-11-25T03:19:45.334Z,10.60
2018-11-25T03:22:17.694Z,11.80
2018-11-25T03:24:50.442Z,11.60
2018-11-25T03:27:22.645Z,10.18
2018-11-25T03:29:55.433Z,10.00
2018-11-25T03:32:27.862Z,10.03
2018-11-25T03:35:00.241Z,12.77
2018-11-25T03:37:33.006Z,11.27
2018-11-25T03:40:05.802Z,11.17
2018-11-25T03:42:38.388Z,12.57
2018-11-25T03:45:14.208Z,11.27
2018-11-25T03:47:46.772Z,13.93
2018-11-25T03:50:19.667Z,12.67
2018-11-25T03:52:51.948Z,11.93
2018-11-25T03:55:24.545Z,11.17
2018-11-25T03:57:56.986Z,10.17
2018-11-25T04:00:29.394Z,9.40
2018-11-25T04:03:02.360Z,11.10
2018-11-25T04:05:35.746Z,9.97
2018-11-25T04:08:08.313Z,9.97
2018-11-25T04:10:40.837Z,9.73
2018-11-25T04:13:13.966Z,9.27
2018-11-25T04:15:46.566Z,8.67
2018-11-25T04:18:19.240Z,8.50
2018-11-25T04:20:51.790Z,8.33
2018-11-25T04:23:24.236Z,8.23
2018-11-25T04:25:57.479Z,9.75
2018-11-25T04:28:29.928Z,8.80
2018-11-25T04:31:02.364Z,8.90
2018-11-25T04:33:34.825Z,9.17
2018-11-25T04:36:07.298Z,8.63
2018-11-25T04:38:41.012Z,9.40
2018-11-25T04:41:13.294Z,8.60
2018-11-25T04:43:46.645Z,9.40
2018-11-25T04:46:19.149Z,11.23
2018-11-25T04:48:52.187Z,14.10
2018-11-25T04:51:24.848Z,15.63
2018-11-25T04:53:57.181Z,16.60
2018-11-25T04:56:30.172Z,21.30
2018-11-25T04:59:02.601Z,21.70
2018-11-25T05:01:35.072Z,20.07
2018-11-25T05:04:07.751Z,17.07
2018-11-25T05:06:40.584Z,19.60
2018-11-25T05:09:13.280Z,17.37
2018-11-25T05:11:45.657Z,14.33
2018-11-25T05:14:18.078Z,13.20
2018-11-25T05:16:50.513Z,13.50
2018-11-25T05:19:23.224Z,11.37
2018-11-25T05:21:59.393Z,11.90
2018-11-25T05:24:31.773Z,11.73
2018-11-25T05:27:04.828Z,12.73
2018-11-25T05:29:37.299Z,24.27
2018-11-25T05:32:09.921Z,43.90
2018-11-25T05:34:43.343Z,51.33
2018-11-25T05:37:15.792Z,55.40
2018-11-25T05:39:48.386Z,92.63
2018-11-25T05:42:20.829Z,101.70
2018-11-25T05:44:53.272Z,75.23
2018-11-25T05:47:26.542Z,41.40
2018-11-25T05:49:59.093Z,30.10
2018-11-25T05:52:31.504Z,22.47
2018-11-25T05:55:04.303Z,16.87
2018-11-25T05:57:36.787Z,14.30
2018-11-25T06:00:30.922Z,13.60
2018-11-25T06:03:03.415Z,13.43
2018-11-25T06:05:35.944Z,13.90
2018-11-25T06:08:09.071Z,15.18
2018-11-25T06:10:42.510Z,12.77
2018-11-25T06:13:14.579Z,13.00
2018-11-25T06:15:47.039Z,14.00
2018-11-25T06:18:19.498Z,13.67
2018-11-25T06:20:52.410Z,14.00
2018-11-25T06:23:25.061Z,13.87
2018-11-25T06:25:57.522Z,12.97
2018-11-25T06:28:30.307Z,14.57
2018-11-25T06:31:02.821Z,15.63
2018-11-25T06:33:35.195Z,14.33
2018-11-25T06:36:08.052Z,13.83
2018-11-25T06:38:40.585Z,14.20
2018-11-25T06:41:13.221Z,15.85
2018-11-25T06:43:45.596Z,12.90
2018-11-25T06:46:18.459Z,13.07
2018-11-25T06:48:54.953Z,14.30
2018-11-25T06:51:24.068Z,14.07
2018-11-25T06:53:56.661Z,15.40
2018-11-25T06:56:29.197Z,13.90
2018-11-25T06:59:01.578Z,14.40
2018-11-25T07:01:33.952Z,13.80
2018-11-25T07:04:06.373Z,13.53
2018-11-25T07:06:39.297Z,13.60
2018-11-25T07:09:12.952Z,14.50
2018-11-25T07:11:45.447Z,15.87
2018-11-25T07:14:17.949Z,15.13
2018-11-25T07:16:50.425Z,16.10
2018-11-25T07:19:22.886Z,15.87
2018-11-25T07:21:55.332Z,15.97
2018-11-25T07:24:27.768Z,15.07
2018-11-25T07:27:00.252Z,15.30
2018-11-25T07:29:32.772Z,16.70
2018-11-25T07:32:05.372Z,15.87
2018-11-25T07:34:37.692Z,17.00
2018-11-25T07:37:10.203Z,16.80
2018-11-25T07:39:42.541Z,19.62
2018-11-25T07:42:14.995Z,19.07
2018-11-25T07:44:47.846Z,19.30
2018-11-25T07:47:20.323Z,19.63
2018-11-25T07:49:52.682Z,18.97
2018-11-25T07:52:25.619Z,28.52
2018-11-25T07:54:58.114Z,17.20
2018-11-25T07:57:30.539Z,18.23
2018-11-25T08:00:03.469Z,18.70
2018-11-25T08:02:41.381Z,17.90
2018-11-25T08:05:10.081Z,20.73
2018-11-25T08:07:42.519Z,17.80
2018-11-25T08:10:15.897Z,16.37
2018-11-25T08:12:48.745Z,16.20
2018-11-25T08:15:21.959Z,15.83
2018-11-25T08:17:54.654Z,15.43
2018-11-25T08:20:27.971Z,14.90
2018-11-25T08:23:00.422Z,13.83
2018-11-25T08:25:32.719Z,13.87
2018-11-25T08:28:05.397Z,14.60
2018-11-25T08:30:37.758Z,14.87
2018-11-25T08:33:10.492Z,15.00
2018-11-25T08:35:42.821Z,15.33
2018-11-25T08:38:15.345Z,17.77
2018-11-25T08:40:47.798Z,17.17
2018-11-25T08:43:20.230Z,15.00
2018-11-25T08:45:53.496Z,14.83
2018-11-25T08:48:26.470Z,16.00
2018-11-25T08:51:00.835Z,15.73
2018-11-25T08:53:33.290Z,14.67
2018-11-25T08:56:05.790Z,14.13
2018-11-25T08:58:38.245Z,14.43
2018-11-25T09:01:11.931Z,17.52
2018-11-25T09:03:44.368Z,15.43
2018-11-25T09:13:20.131Z,16.07
2018-11-25T09:15:52.929Z,16.63
2018-11-25T09:18:25.418Z,16.20
2018-11-25T09:20:58.827Z,16.83
2018-11-25T09:23:31.199Z,16.60
2018-11-25T09:26:03.663Z,16.13
2018-11-25T09:28:36.156Z,14.07
2018-11-25T09:31:08.586Z,14.87
2018-11-25T09:33:41.013Z,15.00
2018-11-25T09:36:14.065Z,14.87
2018-11-25T09:38:46.508Z,14.17
2018-11-25T09:41:19.055Z,13.13
2018-11-25T09:43:51.405Z,14.50
2018-11-25T09:46:23.842Z,15.93
2018-11-25T09:48:56.681Z,14.53
2018-11-25T09:51:29.061Z,15.57
2018-11-25T09:54:01.535Z,15.13
2018-11-25T09:56:33.967Z,15.07
2018-11-25T09:59:06.460Z,16.73
2018-11-25T10:01:38.990Z,15.00
2018-11-25T10:04:11.501Z,18.00
2018-11-25T10:06:44.058Z,19.60
2018-11-25T10:09:16.575Z,16.17
2018-11-25T10:11:49.048Z,17.20
2018-11-25T10:14:21.415Z,17.50
2018-11-25T10:16:53.790Z,17.93
2018-11-25T10:19:26.216Z,18.73
2018-11-25T10:21:58.863Z,16.53
2018-11-25T10:24:31.483Z,14.63
2018-11-25T10:27:03.917Z,19.47
2018-11-25T10:29:36.838Z,14.53
2018-11-25T10:32:09.847Z,14.77
2018-11-25T10:34:42.261Z,15.97
2018-11-25T10:37:14.918Z,15.37
2018-11-25T10:39:47.300Z,15.17
2018-11-25T10:42:19.852Z,15.50
2018-11-25T10:44:52.299Z,17.37
2018-11-25T10:47:24.776Z,15.23
2018-11-25T10:49:57.129Z,16.33
2018-11-25T10:52:33.233Z,17.27
2018-11-25T10:55:05.765Z,15.18
2018-11-25T10:57:38.479Z,16.47
2018-11-25T11:00:22.717Z,18.63
2018-11-25T11:02:59.398Z,17.83
2018-11-25T11:05:35.984Z,17.77
2018-11-25T11:08:08.802Z,17.40
2018-11-25T11:10:41.505Z,17.80
2018-11-25T11:13:14.071Z,16.43
2018-11-25T11:15:46.554Z,15.20
2018-11-25T11:18:18.994Z,18.10
2018-11-25T11:20:51.444Z,20.33
2018-11-25T11:23:23.864Z,17.27
2018-11-25T11:25:56.367Z,18.40
2018-11-25T11:28:28.705Z,21.97
2018-11-25T11:31:01.172Z,19.63
2018-11-25T11:33:33.774Z,20.70
2018-11-25T11:36:06.254Z,23.20
2018-11-25T11:38:38.865Z,19.87
2018-11-25T11:41:13.825Z,21.80
2018-11-25T11:43:46.664Z,30.27
2018-11-25T11:46:19.641Z,20.83
2018-11-25T11:48:52.170Z,21.50
2018-11-25T11:51:25.991Z,21.15
2018-11-25T11:53:58.918Z,22.03
2018-11-25T11:56:31.470Z,24.13
2018-11-25T11:59:04.957Z,22.67
2018-11-25T12:01:37.359Z,26.90
2018-11-25T12:04:09.873Z,22.03
2018-11-25T12:06:42.696Z,23.80
2018-11-25T12:09:16.305Z,25.47
2018-11-25T12:11:48.649Z,21.37
2018-11-25T12:14:21.124Z,23.17
2018-11-25T12:16:53.781Z,20.30
2018-11-25T12:19:28.507Z,19.97
2018-11-25T12:22:01.077Z,17.77
2018-11-25T12:24:37.795Z,20.53
2018-11-25T12:27:10.601Z,19.93
2018-11-25T12:29:43.140Z,17.93
2018-11-25T12:32:15.606Z,20.60
2018-11-25T12:34:49.273Z,19.73
2018-11-25T12:37:22.180Z,15.47
2018-11-25T12:39:56.003Z,15.03
2018-11-25T12:42:29.845Z,15.17
2018-11-25T12:45:02.571Z,16.00
2018-11-25T12:47:35.659Z,19.00
2018-11-25T12:50:10.004Z,15.77
2018-11-25T12:52:46.718Z,18.97
2018-11-25T12:55:20.363Z,17.27
2018-11-25T12:57:52.835Z,14.97
2018-11-25T13:00:27.808Z,20.43
2018-11-25T13:03:00.316Z,20.35
2018-11-25T13:05:32.782Z,17.33
2018-11-25T13:08:05.232Z,16.70
2018-11-25T13:10:41.310Z,19.80
2018-11-25T13:13:14.364Z,18.50
2018-11-25T13:15:46.968Z,19.17
2018-11-25T13:18:19.444Z,17.10
2018-11-25T13:20:52.250Z,16.20
2018-11-25T13:23:25.118Z,18.20
2018-11-25T13:25:57.817Z,23.42
2018-11-25T13:28:30.192Z,18.70
2018-11-25T13:31:04.401Z,23.27
2018-11-25T13:33:36.885Z,20.80
2018-11-25T13:36:12.464Z,17.57
2018-11-25T13:38:45.474Z,34.30
2018-11-25T13:41:18.092Z,24.00
2018-11-25T13:43:50.568Z,19.57
2018-11-25T13:46:22.990Z,17.73
2018-11-25T13:48:55.667Z,15.63
2018-11-25T13:51:28.338Z,21.83
2018-11-25T13:54:03.319Z,16.20
2018-11-25T13:56:35.823Z,15.70
2018-11-25T13:59:08.550Z,18.67
2018-11-25T14:01:41.060Z,20.23
2018-11-25T14:04:13.372Z,16.53
2018-11-25T14:06:45.812Z,15.20
2018-11-25T14:09:19.062Z,15.87
2018-11-25T14:11:54.942Z,16.85
2018-11-25T14:14:27.578Z,16.13
2018-11-25T14:16:59.687Z,15.30
2018-11-25T14:19:32.406Z,17.03
2018-11-25T14:22:04.887Z,60.40
2018-11-25T14:24:37.356Z,18.87
2018-11-25T14:27:11.379Z,30.80
2018-11-25T14:29:43.776Z,23.63
2018-11-25T14:32:16.267Z,31.23
2018-11-25T14:34:48.706Z,19.83
2018-11-25T14:37:21.229Z,19.23
2018-11-25T14:39:53.643Z,24.73
2018-11-25T14:49:33.009Z,19.33
2018-11-25T14:52:05.377Z,18.43
2018-11-25T14:54:37.789Z,18.50
2018-11-25T14:57:10.207Z,18.98
2018-11-25T14:59:42.754Z,16.63
2018-11-25T15:02:15.131Z,16.20
2018-11-25T15:04:48.280Z,17.60
2018-11-25T15:07:26.355Z,16.60
2018-11-25T15:09:59.711Z,19.42
2018-11-25T15:12:32.673Z,16.33
2018-11-25T15:15:05.941Z,15.83
2018-11-25T15:17:40.097Z,16.50
2018-11-25T15:20:14.419Z,13.40
2018-11-25T15:22:49.614Z,12.97
2018-11-25T15:25:23.759Z,11.80
2018-11-25T15:27:56.162Z,11.67
2018-11-25T15:30:28.879Z,12.90
2018-11-25T15:33:01.413Z,12.13
2018-11-25T15:35:33.840Z,13.20
2018-11-25T15:38:06.344Z,13.83
2018-11-25T15:40:39.397Z,16.20
2018-11-25T15:43:12.750Z,17.10
2018-11-25T15:45:45.274Z,16.07
2018-11-25T15:48:27.320Z,16.27
2018-11-25T15:50:59.839Z,16.57
2018-11-25T15:53:32.249Z,17.50
2018-11-25T15:56:06.841Z,14.53
2018-11-25T15:58:39.224Z,16.20
2018-11-25T16:01:11.792Z,13.80
2018-11-25T16:03:44.372Z,13.77
2018-11-25T16:06:32.932Z,13.83
2018-11-25T16:09:15.108Z,14.07
2018-11-25T16:11:48.249Z,13.17
2018-11-25T16:14:20.921Z,12.30
2018-11-25T16:16:53.420Z,13.13
2018-11-25T16:19:26.063Z,18.60
2018-11-25T16:21:58.784Z,16.77
2018-11-25T16:24:35.771Z,13.37
2018-11-25T16:27:09.658Z,14.60
2018-11-25T16:29:42.554Z,13.00
2018-11-25T16:32:15.213Z,12.65
2018-11-25T16:34:47.756Z,11.27
2018-11-25T16:37:20.149Z,11.17
2018-11-25T16:39:52.510Z,10.53
2018-11-25T16:42:24.902Z,10.80
2018-11-25T16:44:57.382Z,11.27
2018-11-25T16:47:29.754Z,11.27
2018-11-25T16:50:02.094Z,11.90
2018-11-25T16:52:34.706Z,11.40
2018-11-25T16:55:07.455Z,11.43
2018-11-25T16:57:39.933Z,11.07
2018-11-25T17:00:18.331Z,11.40
2018-11-25T17:02:50.754Z,12.77
2018-11-25T17:05:25.622Z,11.70
2018-11-25T17:08:04.662Z,11.20
2018-11-25T17:10:37.320Z,12.53
2018-11-25T17:13:10.401Z,10.13
2018-11-25T17:15:42.827Z,11.07
2018-11-25T17:18:15.182Z,10.10
2018-11-25T17:20:47.832Z,10.57
2018-11-25T17:23:21.136Z,11.07
2018-11-25T17:25:53.591Z,10.87
2018-11-25T17:28:26.025Z,10.53
2018-11-25T17:30:58.579Z,11.12
2018-11-25T17:33:31.107Z,10.80
2018-11-25T17:36:03.605Z,11.70
2018-11-25T17:38:36.095Z,10.40
2018-11-25T17:41:08.550Z,10.10
2018-11-25T17:43:41.134Z,10.37
2018-11-25T17:46:13.470Z,11.07
2018-11-25T17:48:46.370Z,11.13
2018-11-25T17:51:18.913Z,10.17
2018-11-25T17:53:51.740Z,10.43
2018-11-25T17:56:24.083Z,11.03
2018-11-25T17:58:57.034Z,11.07
2018-11-25T18:01:29.409Z,9.90
2018-11-25T18:04:01.879Z,10.03
2018-11-25T18:06:34.353Z,11.08
2018-11-25T18:09:07.603Z,9.47
2018-11-25T18:11:39.946Z,9.53
2018-11-25T18:14:13.373Z,9.30
2018-11-25T18:16:46.328Z,9.48
2018-11-25T18:19:26.699Z,8.73
2018-11-25T18:22:06.034Z,10.00
2018-11-25T18:24:38.391Z,8.63
2018-11-25T18:27:10.827Z,8.90
2018-11-25T18:29:43.523Z,9.50
2018-11-25T18:32:15.976Z,9.07
2018-11-25T18:34:48.546Z,8.80
2018-11-25T18:37:21.101Z,8.43
2018-11-25T18:39:53.472Z,9.80
2018-11-25T18:42:26.047Z,9.53
2018-11-25T18:44:59.729Z,8.70
2018-11-25T18:47:32.187Z,8.17
2018-11-25T18:50:12.972Z,7.73
2018-11-25T18:52:46.180Z,9.28
2018-11-25T18:55:15.840Z,8.28
2018-11-25T18:57:48.207Z,7.13
2018-11-25T19:00:27.492Z,7.23
2018-11-25T19:03:00.093Z,7.30
2018-11-25T19:05:32.712Z,9.43
2018-11-25T19:08:05.109Z,9.53
2018-11-25T19:10:37.586Z,8.43
2018-11-25T19:13:11.577Z,7.93
2018-11-25T19:15:44.067Z,7.87
2018-11-25T19:18:16.486Z,7.47
2018-11-25T19:20:48.954Z,7.20
2018-11-25T19:23:21.382Z,6.80
2018-11-25T19:25:53.744Z,7.43
2018-11-25T19:28:26.197Z,7.60
2018-11-25T19:30:58.613Z,7.70
2018-11-25T19:33:31.078Z,7.80
2018-11-25T19:36:03.487Z,7.53
2018-11-25T19:38:36.939Z,8.30
2018-11-25T19:41:10.256Z,6.90
2018-11-25T19:43:42.861Z,7.30
2018-11-25T19:46:15.383Z,7.97
2018-11-25T19:48:47.740Z,8.53
2018-11-25T19:51:20.192Z,8.30
2018-11-25T19:53:52.591Z,9.08
2018-11-25T19:56:25.062Z,8.60
2018-11-25T19:59:02.179Z,7.20
2018-11-25T20:01:34.853Z,8.00
2018-11-25T20:04:07.567Z,7.73
2018-11-25T20:06:40.084Z,7.90
2018-11-25T20:09:13.158Z,7.20
2018-11-25T20:11:45.707Z,7.87
2018-11-25T20:14:18.751Z,7.50
2018-11-25T20:16:55.498Z,7.92
2018-11-25T20:19:28.084Z,7.83
2018-11-25T20:22:05.197Z,8.13
2018-11-25T20:24:38.025Z,8.50
2018-11-25T20:27:14.848Z,8.63
2018-11-25T20:29:47.542Z,8.00
2018-11-25T20:32:24.633Z,7.57
2018-11-25T20:34:57.187Z,8.00
2018-11-25T20:37:29.674Z,8.10
2018-11-25T20:40:02.133Z,7.70
2018-11-25T20:42:34.649Z,7.47
2018-11-25T20:45:11.306Z,7.83
2018-11-25T20:47:43.849Z,7.28
2018-11-25T20:50:16.260Z,8.90
2018-11-25T20:52:53.027Z,8.07
2018-11-25T20:55:25.702Z,10.60
2018-11-25T20:57:58.180Z,11.63
2018-11-25T21:00:32.318Z,11.50
2018-11-25T21:03:04.958Z,11.27
2018-11-25T21:05:37.431Z,12.23
2018-11-25T21:08:10.398Z,11.70
2018-11-25T21:10:42.862Z,12.60
2018-11-25T21:13:15.944Z,12.07
2018-11-25T21:15:48.411Z,12.68
2018-11-25T21:18:21.150Z,12.33
2018-11-25T21:20:53.611Z,14.47
2018-11-25T21:23:26.747Z,13.50
2018-11-25T21:25:59.186Z,13.35
2018-11-25T21:28:32.483Z,12.28
2018-11-25T21:31:04.840Z,13.40
2018-11-25T21:33:37.371Z,13.67
2018-11-25T21:36:10.139Z,16.90
2018-11-25T21:38:42.923Z,17.48
2018-11-25T21:41:15.353Z,15.17
2018-11-25T21:43:48.231Z,15.07
2018-11-25T21:46:20.723Z,18.67
2018-11-25T21:48:53.359Z,17.07
2018-11-25T21:51:25.815Z,14.93
2018-11-25T21:53:59.001Z,16.13
2018-11-25T21:56:31.409Z,17.50
2018-11-25T21:59:03.819Z,16.03
2018-11-25T22:01:36.260Z,15.87
2018-11-25T22:04:08.910Z,15.70
2018-11-25T22:06:41.697Z,17.95
2018-11-25T22:09:14.254Z,16.93
2018-11-25T22:11:46.600Z,16.70
2018-11-25T22:14:18.990Z,16.93
2018-11-25T22:16:51.421Z,16.73
2018-11-25T22:19:23.871Z,18.50
2018-11-25T22:21:56.337Z,18.37
2018-11-25T22:24:28.905Z,17.10
2018-11-25T22:27:01.367Z,18.03
2018-11-25T22:29:33.798Z,21.00
2018-11-25T22:32:06.408Z,16.90
2018-11-25T22:34:38.820Z,15.47
2018-11-25T22:37:11.199Z,15.00
2018-11-25T22:39:43.679Z,20.10
2018-11-25T22:42:16.121Z,20.53
2018-11-25T22:44:48.906Z,21.47
2018-11-25T22:47:21.346Z,21.87
2018-11-25T22:49:53.707Z,23.93
2018-11-25T22:52:26.089Z,25.95
2018-11-25T22:54:58.475Z,24.27
2018-11-25T22:57:30.915Z,23.57
2018-11-25T23:00:03.275Z,22.43
2018-11-25T23:03:38.107Z,23.53
2018-11-25T23:06:27.051Z,24.93
2018-11-25T23:08:59.425Z,25.43
2018-11-25T23:11:31.595Z,25.10
2018-11-25T23:14:04.117Z,29.70
2018-11-25T23:16:36.779Z,30.07
2018-11-25T23:19:09.377Z,30.63
2018-11-25T23:21:41.814Z,31.67
2018-11-25T23:24:14.216Z,31.37
2018-11-25T23:26:46.656Z,34.30
2018-11-25T23:29:19.016Z,32.87
2018-11-25T23:31:51.634Z,33.67
2018-11-25T23:34:24.041Z,34.17
2018-11-25T23:36:56.497Z,35.48
2018-11-25T23:39:28.985Z,35.77
2018-11-25T23:42:02.102Z,37.63
2018-11-25T23:44:34.495Z,35.10
2018-11-25T23:47:07.002Z,34.17
2018-11-25T23:49:39.470Z,38.00
2018-11-25T23:52:11.962Z,36.03
2018-11-25T23:54:44.381Z,36.10
2018-11-25T23:57:16.915Z,36.60
2018-11-25T23:59:49.275Z,36.33
